Time;durP1;ratioP1;P1;durP2;ratioP2;P2;SDS_P1;SDS_P2;PMS_P1;PMS_P2;Temp;Humidity;BMP_temperature;BMP_pressure;BME280_temperature;BME280_humidity;BME280_pressure;Samples;Min_cycle;Max_cycle;Signal;HPM_P1;HPM_P2
2023/03/09 13:44:50;;;;;;;7.90;4.10;;;;;;;0.36;82.37;98889.51;101423;309;546151;-72
2023/03/09 13:47:27;;;;;;;5.60;3.80;;;;;;;0.33;81.43;98894.19;103069;288;38451;-74
2023/03/09 13:50:01;;;;;;;5.50;3.60;;;;;;;0.34;80.84;98897.42;103181;286;39557;-73
2023/03/09 13:52:40;;;;;;;6.10;3.60;;;;;;;0.38;80.26;98903.52;103273;284;38397;-73
2023/03/09 13:55:25;;;;;;;8.30;4.80;;;;;;;0.41;80.16;98909.83;103248;284;39704;-72
2023/03/09 13:58:15;;;;;;;6.10;4.00;;;;;;;0.46;79.96;98924.30;102236;282;1577589;-73
2023/03/09 14:00:57;;;;;;;5.50;3.40;;;;;;;0.47;78.90;98937.83;103401;282;38600;-71
2023/03/09 14:03:32;;;;;;;7.30;3.70;;;;;;;0.39;78.29;98929.57;103520;282;39170;-70
2023/03/09 14:06:07;;;;;;;6.90;4.40;;;;;;;0.38;78.55;98932.35;103361;282;40903;-73
2023/03/09 14:08:49;;;;;;;7.00;3.30;;;;;;;0.38;78.08;98931.83;103475;282;38977;-72
2023/03/09 14:11:25;;;;;;;6.30;3.40;;;;;;;0.37;77.93;98927.22;103474;282;40477;-72
2023/03/09 14:14:04;;;;;;;5.40;3.10;;;;;;;0.36;77.54;98925.34;103532;282;39422;-74
2023/03/09 14:16:38;;;;;;;5.40;3.50;;;;;;;0.34;77.73;98933.12;103423;282;38383;-73
2023/03/09 14:19:27;;;;;;;4.20;2.90;;;;;;;0.32;77.94;98936.27;103522;282;38607;-75
2023/03/09 14:22:02;;;;;;;4.90;3.20;;;;;;;0.31;77.98;98942.10;103447;282;38504;-74
2023/03/09 14:24:36;;;;;;;4.10;2.80;;;;;;;0.32;78.02;98945.51;103503;282;38924;-70
2023/03/09 14:27:22;;;;;;;5.80;3.10;;;;;;;0.32;77.97;98943.80;103511;282;39343;-72
2023/03/09 14:29:57;;;;;;;6.30;4.00;;;;;;;0.35;78.30;98943.56;103516;282;38998;-71
2023/03/09 14:32:32;;;;;;;6.00;3.50;;;;;;;0.37;78.31;98945.41;103449;282;38428;-71
2023/03/09 14:35:31;;;;;;;6.10;3.80;;;;;;;0.38;77.89;98947.45;103496;282;39871;-72
2023/03/09 14:38:15;;;;;;;9.10;4.20;;;;;;;0.33;77.53;98953.73;103533;270;39434;-72
2023/03/09 14:40:50;;;;;;;7.70;4.20;;;;;;;0.32;77.75;98950.83;103497;282;39634;-72
2023/03/09 14:43:35;;;;;;;8.50;4.70;;;;;;;0.33;77.72;98949.60;103520;282;39539;-74
2023/03/09 14:46:20;;;;;;;6.50;4.40;;;;;;;0.34;77.67;98955.77;103466;282;38407;-73
2023/03/09 14:48:56;;;;;;;8.10;4.80;;;;;;;0.34;77.56;98959.86;103540;282;38414;-71
2023/03/09 14:51:32;;;;;;;8.20;5.50;;;;;;;0.33;77.54;98964.02;103516;282;39951;-71
2023/03/09 14:54:12;;;;;;;8.20;5.20;;;;;;;0.32;77.63;98974.99;103501;282;39722;-70
2023/03/09 14:56:46;;;;;;;8.10;5.10;;;;;;;0.29;77.57;98976.25;103455;282;38396;-70
2023/03/09 14:59:21;;;;;;;9.00;4.60;;;;;;;0.31;77.71;98982.08;103436;282;39924;-71
2023/03/09 15:01:57;;;;;;;9.80;5.20;;;;;;;0.34;77.61;98984.91;103404;282;38508;-71
2023/03/09 15:04:31;;;;;;;8.40;5.50;;;;;;;0.34;77.15;98988.70;103432;282;38478;-72
2023/03/09 15:07:05;;;;;;;8.10;6.20;;;;;;;0.29;77.08;98998.04;103414;282;38595;-72
2023/03/09 15:09:41;;;;;;;8.50;5.20;;;;;;;0.30;77.41;98995.98;103479;282;38307;-72
2023/03/09 15:12:18;;;;;;;8.20;5.00;;;;;;;0.29;77.24;98991.71;102684;282;916234;-70
2023/03/09 15:14:52;;;;;;;9.70;5.10;;;;;;;0.28;77.27;98990.52;103380;282;38268;-72
2023/03/09 15:17:26;;;;;;;8.00;5.90;;;;;;;0.26;77.30;98987.98;103389;270;38498;-73
2023/03/09 15:20:00;;;;;;;12.30;7.50;;;;;;;0.28;77.16;98991.90;103431;282;39531;-71
2023/03/09 15:22:34;;;;;;;17.60;8.90;;;;;;;0.29;77.37;98995.13;103373;282;37936;-69
2023/03/09 15:25:09;;;;;;;11.10;7.70;;;;;;;0.29;77.28;98997.02;103417;282;38509;-74
2023/03/09 15:27:45;;;;;;;13.00;6.80;;;;;;;0.29;77.42;99004.38;103386;283;39158;-69
2023/03/09 15:30:21;;;;;;;10.50;6.40;;;;;;;0.29;77.30;99007.82;103404;282;39886;-74
2023/03/09 15:32:56;;;;;;;9.20;6.10;;;;;;;0.29;77.41;99011.59;103395;282;38467;-71
2023/03/09 15:35:30;;;;;;;10.70;6.50;;;;;;;0.32;77.37;99015.84;103404;282;38236;-72
2023/03/09 15:38:04;;;;;;;8.70;6.80;;;;;;;0.32;77.28;99016.85;103266;282;175933;-72
2023/03/09 15:40:41;;;;;;;10.00;6.70;;;;;;;0.32;77.25;99010.52;103419;282;38251;-73
2023/03/09 15:43:16;;;;;;;9.30;7.20;;;;;;;0.30;76.99;99013.48;103416;272;38609;-69
2023/03/09 15:45:51;;;;;;;13.40;7.90;;;;;;;0.27;77.21;99020.04;103402;282;39435;-69
2023/03/09 15:48:29;;;;;;;9.60;6.30;;;;;;;0.27;77.27;99025.20;103478;282;38839;-70
2023/03/09 15:51:07;;;;;;;13.30;7.20;;;;;;;0.26;77.00;99032.39;103503;282;38227;-71
2023/03/09 15:53:42;;;;;;;10.10;7.20;;;;;;;0.27;77.11;99039.92;103440;282;38645;-70
2023/03/09 15:56:20;;;;;;;9.60;6.70;;;;;;;0.33;77.32;99039.99;103417;282;38291;-70
2023/03/09 15:58:54;;;;;;;11.70;7.80;;;;;;;0.36;77.20;99034.29;103401;282;38237;-71
2023/03/09 16:01:29;;;;;;;13.20;8.40;;;;;;;0.36;77.04;99033.61;103475;282;38597;-71
2023/03/09 16:04:06;;;;;;;13.20;8.60;;;;;;;0.34;76.80;99037.77;103438;282;38808;-71
2023/03/09 16:06:40;;;;;;;11.00;7.40;;;;;;;0.29;76.52;99036.83;103408;282;37969;-70
2023/03/09 16:09:14;;;;;;;11.20;7.50;;;;;;;0.27;76.72;99042.67;103448;282;38278;-71
2023/03/09 16:11:48;;;;;;;12.10;8.10;;;;;;;0.26;76.33;99051.61;103391;282;38550;-72
2023/03/09 16:14:22;;;;;;;12.30;7.40;;;;;;;0.26;76.35;99069.47;103385;282;39487;-71
2023/03/09 16:16:57;;;;;;;9.40;6.40;;;;;;;0.27;76.39;99078.54;103442;282;38525;-73
2023/03/09 16:19:31;;;;;;;10.30;7.10;;;;;;;0.27;76.28;99077.50;103455;282;38962;-72
2023/03/09 16:22:07;;;;;;;11.70;7.10;;;;;;;0.26;76.07;99077.17;103416;282;38394;-70
2023/03/09 16:24:41;;;;;;;9.90;6.60;;;;;;;0.21;75.72;99078.44;103432;282;38383;-71
2023/03/09 16:27:15;;;;;;;9.10;6.30;;;;;;;0.15;75.53;99077.00;103397;282;38447;-70
2023/03/09 16:29:49;;;;;;;8.00;5.80;;;;;;;0.14;75.25;99081.65;103443;282;38279;-76
2023/03/09 16:32:23;;;;;;;8.30;4.90;;;;;;;0.16;75.57;99095.35;103412;282;40267;-74
2023/03/09 16:34:57;;;;;;;7.10;5.60;;;;;;;0.16;74.82;99098.75;103461;282;38540;-71
2023/03/09 16:37:31;;;;;;;7.00;4.90;;;;;;;0.15;74.69;99101.52;103367;283;40455;-71
2023/03/09 16:40:07;;;;;;;8.10;5.30;;;;;;;0.14;74.55;99107.20;103428;282;39383;-69
2023/03/09 16:42:42;;;;;;;6.60;5.30;;;;;;;0.11;74.29;99116.69;103393;282;39165;-69
2023/03/09 16:45:19;;;;;;;7.50;5.20;;;;;;;0.05;74.27;99131.85;103407;282;38365;-71
2023/03/09 16:47:54;;;;;;;11.20;6.70;;;;;;;0.04;74.64;99143.38;103476;270;38846;-70
2023/03/09 16:50:31;;;;;;;13.10;8.30;;;;;;;0.02;74.71;99132.77;103389;270;39392;-68
2023/03/09 16:53:06;;;;;;;10.10;7.00;;;;;;;0.03;74.75;99133.10;103442;282;38240;-70
2023/03/09 16:55:41;;;;;;;8.70;6.60;;;;;;;0.05;74.65;99130.84;103412;282;38373;-71
2023/03/09 16:58:15;;;;;;;11.80;6.90;;;;;;;0.07;74.63;99127.90;103411;282;38267;-70
2023/03/09 17:00:48;;;;;;;9.10;6.20;;;;;;;0.07;74.22;99141.27;103400;282;38618;-70
2023/03/09 17:03:24;;;;;;;10.70;6.60;;;;;;;0.07;74.33;99150.36;103426;282;38527;-68
2023/03/09 17:05:58;;;;;;;12.30;9.30;;;;;;;0.07;74.15;99156.20;103421;282;38551;-70
2023/03/09 17:08:34;;;;;;;22.80;14.00;;;;;;;0.06;74.01;99156.70;103382;282;39746;-70
2023/03/09 17:11:11;;;;;;;21.10;13.00;;;;;;;0.01;73.95;99151.63;103409;282;38267;-68
2023/03/09 17:13:49;;;;;;;23.60;14.80;;;;;;;-0.00;74.01;99150.12;103466;282;38521;-70
2023/03/09 17:16:26;;;;;;;18.90;12.10;;;;;;;-0.03;73.46;99152.55;103434;282;39011;-69
2023/03/09 17:19:01;;;;;;;12.60;8.50;;;;;;;-0.05;73.77;99154.48;103488;282;38234;-72
2023/03/09 17:21:42;;;;;;;9.80;7.30;;;;;;;-0.06;72.78;99156.20;103507;282;38496;-68
2023/03/09 17:24:17;;;;;;;9.70;6.90;;;;;;;-0.07;72.96;99161.00;103481;282;38288;-68
2023/03/09 17:26:51;;;;;;;10.90;7.20;;;;;;;-0.06;72.80;99159.63;103479;282;39416;-70
2023/03/09 17:29:26;;;;;;;9.00;5.50;;;;;;;-0.06;72.89;99167.17;103461;282;38266;-70
2023/03/09 17:32:07;;;;;;;8.60;5.60;;;;;;;-0.06;72.78;99170.60;103490;282;39396;-69
2023/03/09 17:34:43;;;;;;;8.40;4.70;;;;;;;-0.07;72.39;99174.21;103385;282;38481;-70
2023/03/09 17:37:19;;;;;;;5.80;4.40;;;;;;;-0.10;71.52;99176.15;103360;283;38504;-72
2023/03/09 17:39:54;;;;;;;7.40;4.90;;;;;;;-0.14;71.21;99181.68;103452;282;38408;-71
2023/03/09 17:42:28;;;;;;;7.10;4.70;;;;;;;-0.17;71.42;99177.44;103392;282;38429;-72
2023/03/09 17:45:03;;;;;;;9.20;5.60;;;;;;;-0.18;70.89;99178.66;103488;282;38396;-72
2023/03/09 17:47:37;;;;;;;10.90;6.20;;;;;;;-0.18;70.82;99179.33;103481;282;40183;-69
2023/03/09 17:50:15;;;;;;;8.80;5.50;;;;;;;-0.17;71.33;99176.26;103474;282;38221;-71
2023/03/09 17:52:49;;;;;;;8.60;5.50;;;;;;;-0.14;71.17;99163.02;103480;282;38328;-71
2023/03/09 17:55:23;;;;;;;9.40;6.50;;;;;;;-0.13;70.93;99160.08;103480;282;38347;-70
2023/03/09 17:57:57;;;;;;;10.00;6.20;;;;;;;-0.12;71.04;99160.39;103498;282;39668;-70
2023/03/09 18:00:33;;;;;;;7.90;5.20;;;;;;;-0.11;71.12;99165.70;103506;282;39428;-70
2023/03/09 18:03:07;;;;;;;9.00;4.90;;;;;;;-0.10;71.32;99161.05;103477;282;39870;-72
2023/03/09 18:05:44;;;;;;;6.60;3.80;;;;;;;-0.11;70.87;99146.50;103492;282;38614;-69
2023/03/09 18:08:18;;;;;;;7.00;4.10;;;;;;;-0.14;70.50;99142.94;103501;270;38481;-70
2023/03/09 18:10:54;;;;;;;6.50;4.20;;;;;;;-0.16;70.19;99144.86;103324;282;39438;-70
2023/03/09 18:13:28;;;;;;;8.70;4.70;;;;;;;-0.18;70.34;99152.77;103499;282;38260;-69
2023/03/09 18:16:02;;;;;;;6.40;3.90;;;;;;;-0.16;70.73;99154.80;103470;282;38928;-69
2023/03/09 18:18:37;;;;;;;4.50;3.00;;;;;;;-0.13;70.31;99158.53;103501;282;38827;-69
2023/03/09 18:21:13;;;;;;;6.00;3.80;;;;;;;-0.10;69.56;99159.17;103522;282;39078;-69
2023/03/09 18:23:48;;;;;;;8.00;5.00;;;;;;;-0.07;69.81;99159.81;103441;282;38283;-69
2023/03/09 18:26:24;;;;;;;6.90;4.60;;;;;;;-0.06;68.92;99159.79;103472;282;38292;-68
2023/03/09 18:29:04;;;;;;;8.60;5.40;;;;;;;-0.07;68.83;99152.96;103449;282;38237;-67
2023/03/09 18:31:45;;;;;;;6.40;4.90;;;;;;;-0.08;68.57;99156.91;103380;283;39425;-69
2023/03/09 18:34:19;;;;;;;7.70;4.80;;;;;;;-0.10;68.22;99162.95;103372;282;38730;-71
2023/03/09 18:36:54;;;;;;;5.60;4.20;;;;;;;-0.14;67.67;99171.91;103408;282;38244;-71
2023/03/09 18:39:30;;;;;;;6.00;4.20;;;;;;;-0.16;67.31;99185.83;103420;282;38509;-68
2023/03/09 18:42:07;;;;;;;6.10;4.20;;;;;;;-0.19;67.42;99189.64;103421;282;38252;-68
2023/03/09 18:44:45;;;;;;;6.60;5.10;;;;;;;-0.21;67.59;99184.19;103269;282;175675;-70
2023/03/09 18:47:19;;;;;;;6.10;4.00;;;;;;;-0.23;67.91;99186.60;103749;279;40455;-70
2023/03/09 18:49:53;;;;;;;6.70;3.70;;;;;;;-0.25;67.69;99196.73;103743;279;39931;-69
2023/03/09 18:52:27;;;;;;;7.40;5.70;;;;;;;-0.26;67.84;99208.92;103757;279;40098;-69
2023/03/09 18:55:01;;;;;;;8.00;5.20;;;;;;;-0.27;68.22;99210.65;103784;279;40221;-70
2023/03/09 18:57:35;;;;;;;5.80;4.00;;;;;;;-0.27;68.07;99208.42;103765;279;39155;-71
2023/03/09 19:00:15;;;;;;;6.80;4.90;;;;;;;-0.26;67.83;99210.11;103776;279;38628;-69
2023/03/09 19:02:48;;;;;;;;;;;;;;;-0.22;68.11;99213.33;103807;279;39759;-70
2023/03/09 19:05:22;;;;;;;6.90;4.30;;;;;;;-0.21;68.47;99216.23;103096;279;916764;-71
2023/03/09 19:07:56;;;;;;;7.30;5.30;;;;;;;-0.17;68.25;99217.20;103151;279;915910;-71
2023/03/09 19:10:30;;;;;;;48.90;29.30;;;;;;;-0.15;67.83;99214.44;103770;279;38266;-70
2023/03/09 19:13:04;;;;;;;13.30;8.10;;;;;;;-0.15;68.02;99215.30;103801;279;40362;-69
2023/03/09 19:15:39;;;;;;;7.80;4.50;;;;;;;-0.15;67.47;99204.16;103753;279;38982;-71
2023/03/09 19:18:13;;;;;;;11.40;7.60;;;;;;;-0.18;66.22;99200.59;103784;279;39133;-69
2023/03/09 19:20:52;;;;;;;6.80;4.00;;;;;;;-0.23;66.92;99199.63;103780;279;38675;-68
2023/03/09 19:23:26;;;;;;;5.10;3.40;;;;;;;-0.26;65.91;99201.21;103802;279;39158;-70
2023/03/09 19:26:00;;;;;;;5.30;3.40;;;;;;;-0.29;65.25;99199.19;103761;279;39468;-70
2023/03/09 19:28:34;;;;;;;6.50;4.00;;;;;;;-0.30;65.37;99204.00;103649;279;39437;-70
2023/03/09 19:31:11;;;;;;;8.40;4.80;;;;;;;-0.31;66.09;99201.29;103779;279;38519;-71
2023/03/09 19:33:48;;;;;;;6.80;4.20;;;;;;;-0.31;66.25;99193.21;103798;278;38251;-69
2023/03/09 19:36:32;;;;;;;8.70;5.70;;;;;;;-0.32;65.59;99208.66;103801;279;39426;-69
2023/03/09 19:39:10;;;;;;;7.40;4.30;;;;;;;-0.34;64.82;99208.35;103682;278;38487;-68
2023/03/09 19:41:46;;;;;;;7.40;3.90;;;;;;;-0.36;64.55;99205.45;103741;279;38586;-68
2023/03/09 19:44:20;;;;;;;7.30;4.20;;;;;;;-0.37;64.91;99213.52;103786;279;38243;-70
2023/03/09 19:46:54;;;;;;;6.50;4.10;;;;;;;-0.37;65.36;99211.12;103763;279;38366;-71
2023/03/09 19:49:56;;;;;;;6.30;3.70;;;;;;;-0.38;65.22;99207.52;103803;279;38480;-73
2023/03/09 19:52:30;;;;;;;5.00;3.50;;;;;;;-0.39;65.12;99205.15;103734;278;38437;-71
2023/03/09 19:55:05;;;;;;;6.10;3.80;;;;;;;-0.36;65.45;99213.17;103799;279;38235;-71
2023/03/09 19:57:42;;;;;;;6.20;3.40;;;;;;;-0.33;65.37;99216.38;103751;279;38478;-72
2023/03/09 20:00:18;;;;;;;7.10;3.80;;;;;;;-0.28;65.09;99211.88;103793;279;38260;-70
2023/03/09 20:02:55;;;;;;;6.00;3.70;;;;;;;-0.24;64.99;99222.45;103797;279;38246;-71
2023/03/09 20:05:31;;;;;;;6.20;4.50;;;;;;;-0.20;64.84;99232.50;103745;279;38259;-73
2023/03/09 20:08:06;;;;;;;9.90;6.70;;;;;;;-0.18;64.53;99243.95;103803;267;38267;-73
2023/03/09 20:10:43;;;;;;;6.10;4.00;;;;;;;-0.18;63.77;99243.10;103759;279;38278;-73
2023/03/09 20:13:18;;;;;;;8.00;5.00;;;;;;;-0.18;64.37;99249.10;103742;278;38713;-71
2023/03/09 20:16:00;;;;;;;5.70;4.00;;;;;;;-0.18;64.60;99241.39;103767;279;40039;-72
2023/03/09 20:18:34;;;;;;;5.80;3.80;;;;;;;-0.20;64.10;99229.76;103753;279;39078;-71
2023/03/09 20:21:10;;;;;;;4.70;3.30;;;;;;;-0.20;64.79;99228.21;103782;278;38412;-72
2023/03/09 20:23:46;;;;;;;8.70;4.70;;;;;;;-0.21;64.65;99226.00;103788;278;39410;-71
2023/03/09 20:26:22;;;;;;;9.10;4.90;;;;;;;-0.22;64.83;99210.94;103824;279;38324;-72
2023/03/09 20:28:57;;;;;;;8.80;4.50;;;;;;;-0.25;64.74;99207.20;103683;279;38327;-73
2023/03/09 20:31:33;;;;;;;11.30;5.40;;;;;;;-0.26;64.65;99215.79;103814;279;39656;-70
2023/03/09 20:34:12;;;;;;;11.50;5.50;;;;;;;-0.29;64.76;99220.61;103638;278;175964;-71
2023/03/09 20:36:46;;;;;;;7.50;5.30;;;;;;;-0.31;64.82;99220.30;103806;279;39350;-71
2023/03/09 20:39:21;;;;;;;10.20;5.60;;;;;;;-0.32;65.03;99215.17;103809;279;39940;-71
2023/03/09 20:41:57;;;;;;;8.50;4.80;;;;;;;-0.34;65.03;99209.54;103631;279;175986;-72
2023/03/09 20:44:32;;;;;;;10.40;5.40;;;;;;;-0.33;65.32;99206.96;103803;279;38487;-74
2023/03/09 20:47:06;;;;;;;8.60;4.40;;;;;;;-0.31;65.35;99201.61;103802;279;38254;-72
2023/03/09 20:49:40;;;;;;;8.10;4.10;;;;;;;-0.27;65.30;99210.65;103808;279;38474;-72
2023/03/09 20:52:14;;;;;;;8.30;4.90;;;;;;;-0.24;65.16;99214.39;103821;279;38321;-72
2023/03/09 20:54:48;;;;;;;8.60;4.50;;;;;;;-0.19;65.26;99209.71;103787;279;38391;-73
2023/03/09 20:57:26;;;;;;;9.20;5.40;;;;;;;-0.17;65.42;99201.95;103776;279;38597;-73
2023/03/09 21:00:00;;;;;;;9.00;5.10;;;;;;;-0.15;65.52;99200.04;103840;279;38252;-72
2023/03/09 21:02:34;;;;;;;11.80;7.00;;;;;;;-0.14;65.51;99194.53;103766;279;39684;-72
2023/03/09 21:05:09;;;;;;;10.10;6.50;;;;;;;-0.13;65.76;99197.11;103839;279;38547;-71
2023/03/09 21:07:46;;;;;;;10.50;6.30;;;;;;;-0.14;65.97;99192.66;103762;279;38247;-71
2023/03/09 21:10:22;;;;;;;9.00;5.30;;;;;;;-0.15;65.87;99189.41;103754;279;38272;-70
2023/03/09 21:12:56;;;;;;;12.10;5.40;;;;;;;-0.17;66.03;99185.50;103799;279;39442;-69
2023/03/09 21:15:29;;;;;;;9.00;5.30;;;;;;;-0.20;66.29;99184.70;103784;279;39018;-69
2023/03/09 21:18:03;;;;;;;9.50;5.30;;;;;;;-0.21;66.84;99190.00;103710;279;173773;-71
2023/03/09 21:20:37;;;;;;;8.40;5.40;;;;;;;-0.22;67.48;99180.77;103761;279;39499;-72
2023/03/09 21:23:13;;;;;;;8.50;5.10;;;;;;;-0.21;67.88;99174.92;103816;279;38402;-70
2023/03/09 21:25:47;;;;;;;9.60;5.30;;;;;;;-0.18;68.36;99177.48;103647;279;38593;-71
2023/03/09 21:28:22;;;;;;;8.50;5.30;;;;;;;-0.14;68.61;99180.15;103809;278;38938;-71
2023/03/09 21:30:57;;;;;;;8.60;5.40;;;;;;;-0.08;69.10;99186.59;103752;279;39956;-70
2023/03/09 21:33:31;;;;;;;7.20;5.30;;;;;;;-0.05;69.43;99189.95;103788;279;38687;-70
2023/03/09 21:36:05;;;;;;;10.70;6.50;;;;;;;-0.03;69.74;99187.70;103550;280;190617;-71
2023/03/09 21:38:40;;;;;;;11.70;6.50;;;;;;;-0.04;69.87;99184.13;103806;279;38710;-73
2023/03/09 21:41:15;;;;;;;9.80;6.90;;;;;;;-0.07;70.23;99180.21;103771;279;38760;-71
2023/03/09 21:43:50;;;;;;;10.40;6.30;;;;;;;-0.09;70.51;99183.84;103795;279;38278;-71
2023/03/09 21:46:24;;;;;;;12.50;7.70;;;;;;;-0.09;70.66;99184.54;103741;279;38752;-72
2023/03/09 21:49:02;;;;;;;8.90;6.40;;;;;;;-0.10;71.05;99180.09;103748;279;38368;-72
2023/03/09 21:51:36;;;;;;;8.90;5.30;;;;;;;-0.09;71.18;99181.45;103666;279;38293;-71
2023/03/09 21:54:11;;;;;;;8.30;5.60;;;;;;;-0.06;71.14;99185.00;103788;279;38852;-72
2023/03/09 21:56:46;;;;;;;11.50;6.10;;;;;;;-0.03;71.54;99177.24;103710;279;39916;-73
2023/03/09 21:59:22;;;;;;;10.40;6.30;;;;;;;0.00;71.68;99178.75;103178;279;709366;-72
2023/03/09 22:01:57;;;;;;;11.50;6.40;;;;;;;0.04;71.66;99174.91;103742;279;38877;-72
2023/03/09 22:04:33;;;;;;;10.00;6.50;;;;;;;0.03;71.73;99176.64;103756;279;38107;-70
2023/03/09 22:07:07;;;;;;;8.20;6.30;;;;;;;0.03;71.70;99179.39;103649;279;39415;-72
2023/03/09 22:09:41;;;;;;;10.40;6.50;;;;;;;0.00;71.79;99175.14;103689;280;40060;-73
2023/03/09 22:12:15;;;;;;;9.60;5.90;;;;;;;0.00;71.81;99171.38;103794;279;38439;-73
2023/03/09 22:14:50;;;;;;;8.20;5.30;;;;;;;0.01;71.82;99166.23;103788;279;38493;-70
2023/03/09 22:17:24;;;;;;;8.80;5.40;;;;;;;0.02;71.75;99162.96;103786;267;40016;-72
2023/03/09 22:20:10;;;;;;;7.70;5.40;;;;;;;0.02;71.43;99162.42;103776;279;38256;-70
2023/03/09 22:22:51;;;;;;;11.60;6.30;;;;;;;0.04;71.50;99160.69;103803;279;38282;-73
2023/03/09 22:25:26;;;;;;;10.60;5.80;;;;;;;0.04;71.36;99155.37;103787;279;38605;-70
2023/03/09 22:28:00;;;;;;;9.00;5.50;;;;;;;0.01;71.20;99155.42;103814;279;39874;-70
2023/03/09 22:30:35;;;;;;;9.10;6.00;;;;;;;-0.01;71.36;99149.10;103788;279;38268;-72
2023/03/09 22:33:09;;;;;;;10.40;5.70;;;;;;;-0.03;71.27;99147.08;103713;280;38409;-71
2023/03/09 22:35:43;;;;;;;9.60;5.40;;;;;;;-0.06;71.29;99148.83;103767;279;39207;-71
2023/03/09 22:38:17;;;;;;;8.50;5.40;;;;;;;-0.06;71.17;99145.74;103797;279;38308;-69
2023/03/09 22:40:51;;;;;;;7.90;4.70;;;;;;;-0.08;70.65;99142.85;103694;279;175941;-71
2023/03/09 22:43:25;;;;;;;9.80;5.70;;;;;;;-0.10;70.85;99138.42;103808;279;39806;-70
2023/03/09 22:46:00;;;;;;;8.30;5.60;;;;;;;-0.08;70.97;99133.26;103754;279;39671;-72
2023/03/09 22:48:34;;;;;;;8.70;5.90;;;;;;;-0.07;70.96;99127.41;103798;279;38765;-71
2023/03/09 22:51:13;;;;;;;8.80;5.30;;;;;;;-0.10;70.93;99124.38;103744;279;38586;-72
2023/03/09 22:53:48;;;;;;;9.00;6.20;;;;;;;-0.13;71.06;99114.98;103754;279;40454;-71
2023/03/09 22:56:22;;;;;;;8.80;5.50;;;;;;;-0.13;71.22;99118.59;103760;279;38394;-70
2023/03/09 22:58:56;;;;;;;12.10;6.50;;;;;;;-0.17;71.10;99113.34;103750;279;38284;-71
2023/03/09 23:01:30;;;;;;;9.00;5.80;;;;;;;-0.20;71.28;99111.84;103770;279;38518;-70
2023/03/09 23:04:04;;;;;;;8.50;6.00;;;;;;;-0.19;71.47;99106.52;103765;279;38820;-70
2023/03/09 23:06:39;;;;;;;9.20;6.30;;;;;;;-0.19;71.38;99099.48;103782;279;38813;-69
2023/03/09 23:09:13;;;;;;;9.40;6.40;;;;;;;-0.18;71.62;99097.08;103776;279;39686;-72
2023/03/09 23:11:47;;;;;;;11.30;6.30;;;;;;;-0.18;71.76;99095.71;103694;279;175573;-72
2023/03/09 23:14:21;;;;;;;10.00;6.10;;;;;;;-0.19;71.85;99087.66;103683;279;38255;-70
2023/03/09 23:16:55;;;;;;;10.60;6.40;;;;;;;-0.20;72.11;99090.24;103132;279;918055;-72
2023/03/09 23:19:30;;;;;;;9.60;5.60;;;;;;;-0.22;72.04;99092.52;103756;278;38816;-72
2023/03/09 23:22:04;;;;;;;10.40;6.80;;;;;;;-0.22;72.14;99089.23;103786;279;40041;-71
2023/03/09 23:24:39;;;;;;;10.20;5.80;;;;;;;-0.19;72.31;99085.10;103798;267;38540;-70
2023/03/09 23:27:13;;;;;;;9.80;6.20;;;;;;;-0.19;72.27;99078.23;103767;279;38822;-70
2023/03/09 23:29:49;;;;;;;8.10;5.70;;;;;;;-0.16;72.48;99081.45;103718;279;38439;-70
2023/03/09 23:32:23;;;;;;;11.80;6.90;;;;;;;-0.13;72.52;99085.00;103807;279;38245;-72
2023/03/09 23:34:58;;;;;;;11.60;6.80;;;;;;;-0.09;72.51;99075.86;103789;279;38414;-70
2023/03/09 23:37:33;;;;;;;7.90;5.00;;;;;;;-0.07;72.56;99070.33;103755;279;38295;-71
2023/03/09 23:40:10;;;;;;;9.10;5.60;;;;;;;-0.10;72.51;99068.33;103761;279;38266;-72
2023/03/09 23:42:45;;;;;;;10.10;6.50;;;;;;;-0.15;72.69;99063.95;103777;278;38759;-72
2023/03/09 23:45:19;;;;;;;11.00;6.30;;;;;;;-0.18;72.76;99066.22;103808;279;38267;-72
2023/03/09 23:47:56;;;;;;;10.00;6.10;;;;;;;-0.21;73.14;99074.15;103754;279;39642;-72
2023/03/09 23:50:31;;;;;;;7.30;5.50;;;;;;;-0.22;73.42;99073.33;103777;279;38394;-71
2023/03/09 23:53:06;;;;;;;10.30;6.30;;;;;;;-0.21;73.62;99074.84;103649;280;39705;-72
2023/03/09 23:55:45;;;;;;;11.30;6.60;;;;;;;-0.20;73.98;99072.95;103808;279;38503;-70
2023/03/09 23:58:19;;;;;;;13.00;6.70;;;;;;;-0.23;74.21;99066.98;103789;279;39009;-71
